Goldvein, Virginia
Current Conditions -  °F | °C
As of 11:35 AM on Friday 31 Oct 2014 (Local Time) from KHWY Reporting Station
Overcast Overcast  
Wind Chill: 13°   Ceiling: 5500
Heat Index: 13°   Visibility: 10mi
Dew Point:   Wind: 3mph
Humidity: 73%   Direction: 120°ESE
Pressure: 29.96"   Gusts: NA
Location:  38.45°N, 77.65°W
Report Text: KHWY 311535Z AUTO 12003KT 10SM OVC055 13/08 A2996 RMK AO2 T01250078
Loading
Personal Weather Stations






























Interactive Weather Map
Tropical Storm Tracking
New forecast layout! Learn more

10-Day Weather Forecast

Advertisements
Track Severe Weather on mobile